Time;durP1;ratioP1;P1;durP2;ratioP2;P2;SDS_P1;SDS_P2;PMS_P1;PMS_P2;Temp;Humidity;BMP_temperature;BMP_pressure;BME280_temperature;BME280_humidity;BME280_pressure;Samples;Min_cycle;Max_cycle;Signal;HPM_P1;HPM_P2
2022/07/01 00:00:17;;;;;;;6.57;4.90;;;21.00;99.90;21.10;100148.00;;;;4898447;28;87733;-61
2022/07/01 00:02:42;;;;;;;6.22;5.35;;;20.80;99.90;21.00;100153.00;;;;4880571;28;97825;-60
2022/07/01 00:05:08;;;;;;;6.75;4.97;;;20.90;99.90;21.00;100150.00;;;;4899580;28;90019;-59
2022/07/01 00:07:34;;;;;;;6.93;5.07;;;20.80;99.90;20.90;100143.00;;;;4897663;28;116322;-60
2022/07/01 00:09:59;;;;;;;8.88;5.70;;;20.80;99.90;20.90;100145.00;;;;4880004;28;104398;-61
2022/07/01 00:12:25;;;;;;;7.88;5.95;;;20.70;99.90;20.90;100153.00;;;;4898069;28;109483;-61
2022/07/01 00:14:51;;;;;;;7.22;5.32;;;20.70;99.90;20.80;100151.00;;;;4899349;28;87234;-60
2022/07/01 00:17:16;;;;;;;6.60;4.88;;;20.70;99.90;20.80;100155.00;;;;4897634;28;116616;-60
2022/07/01 00:19:42;;;;;;;7.95;4.97;;;20.70;99.90;20.80;100165.00;;;;4897910;28;110060;-61
2022/07/01 00:22:08;;;;;;;10.20;4.65;;;20.60;99.90;20.80;100157.00;;;;4898760;28;88555;-60
2022/07/01 00:24:34;;;;;;;6.32;5.32;;;20.60;99.90;20.70;100150.00;;;;4899527;28;88184;-61
2022/07/01 00:27:18;;;;;;;6.22;5.07;;;20.60;99.90;20.60;100150.00;;;;4897726;28;99185;-61
2022/07/01 00:29:44;;;;;;;9.23;6.38;;;20.50;99.90;20.60;100153.00;;;;4899450;28;88615;-60
2022/07/01 00:32:09;;;;;;;12.98;5.25;;;20.50;99.90;20.60;100146.00;;;;4900063;28;89330;-61
2022/07/01 00:34:35;;;;;;;8.13;4.72;;;20.40;99.90;20.50;100150.00;;;;4896257;28;117018;-61
2022/07/01 00:37:01;;;;;;;6.13;5.38;;;20.40;99.90;20.50;100154.00;;;;4879886;28;108736;-60
2022/07/01 00:39:28;;;;;;;7.55;5.47;;;20.30;99.90;20.50;100158.00;;;;4897971;28;87219;-60
2022/07/01 00:42:00;;;;;;;7.80;5.47;;;20.30;99.90;20.50;100160.00;;;;4897466;28;87590;-61
2022/07/01 00:44:25;;;;;;;12.90;6.65;;;20.30;99.90;20.50;100153.00;;;;4898570;28;88102;-60
2022/07/01 00:46:51;;;;;;;5.85;5.20;;;20.30;99.90;20.40;100151.00;;;;4896109;28;118339;-60
2022/07/01 00:49:18;;;;;;;6.60;5.70;;;20.30;99.90;20.40;100140.00;;;;4898892;28;88034;-60
2022/07/01 00:51:44;;;;;;;10.60;5.38;;;20.30;99.90;20.40;100149.00;;;;4898659;28;87951;-60
2022/07/01 00:54:11;;;;;;;8.25;5.78;;;20.30;99.90;20.40;100137.00;;;;4897002;28;116587;-60
2022/07/01 00:56:37;;;;;;;7.45;5.43;;;20.30;99.90;20.40;100142.00;;;;4897891;28;88850;-60
2022/07/01 00:59:03;;;;;;;6.45;5.40;;;20.20;99.90;20.40;100144.00;;;;4897478;28;102195;-61
2022/07/01 01:01:29;;;;;;;6.93;5.47;;;20.20;99.90;20.30;100153.00;;;;4897403;28;108308;-60
2022/07/01 01:03:55;;;;;;;7.70;5.53;;;20.20;99.90;20.30;100152.00;;;;4898569;28;88142;-60
2022/07/01 01:06:21;;;;;;;7.10;5.55;;;20.20;99.90;20.30;100150.00;;;;4897734;28;87825;-60
2022/07/01 01:08:48;;;;;;;6.28;4.85;;;20.10;99.90;20.30;100147.00;;;;4897625;28;99012;-61
2022/07/01 01:11:16;;;;;;;6.10;5.18;;;20.10;99.90;20.20;100154.00;;;;4898383;28;88973;-61
2022/07/01 01:13:42;;;;;;;10.38;6.18;;;20.10;99.90;20.20;100150.00;;;;4897383;28;88279;-60
2022/07/01 01:16:08;;;;;;;7.18;5.85;;;20.10;99.90;20.20;100147.00;;;;4895778;28;117823;-61
2022/07/01 01:18:34;;;;;;;6.88;6.13;;;20.00;99.90;20.20;100144.00;;;;4898192;28;87784;-61
2022/07/01 01:21:00;;;;;;;8.43;6.22;;;20.10;99.90;20.10;100137.00;;;;4898772;28;87714;-60
2022/07/01 01:23:26;;;;;;;8.15;6.00;;;20.00;99.90;20.10;100142.00;;;;4879447;28;116838;-59
2022/07/01 01:25:52;;;;;;;12.48;7.60;;;20.00;99.90;20.10;100134.00;;;;4895742;28;117095;-60
2022/07/01 01:28:17;;;;;;;10.50;7.15;;;20.00;99.90;20.10;100132.00;;;;4899514;28;87055;-60
2022/07/01 01:30:43;;;;;;;17.48;6.70;;;19.90;99.90;20.00;100119.00;;;;4898829;28;87807;-61
2022/07/01 01:33:11;;;;;;;6.70;5.13;;;19.90;99.90;20.00;100123.00;;;;4897098;28;88639;-60
2022/07/01 01:35:38;;;;;;;11.52;6.63;;;19.90;99.90;20.00;100112.00;;;;4897026;28;88719;-61
2022/07/01 01:38:03;;;;;;;9.82;5.53;;;19.90;99.90;20.00;100105.00;;;;4898451;28;88407;-60
2022/07/01 01:40:29;;;;;;;11.90;6.78;;;20.00;99.90;20.00;100114.00;;;;4898242;28;87626;-60
2022/07/01 01:42:55;;;;;;;8.45;6.85;;;19.90;99.90;20.00;100111.00;;;;4895674;28;118295;-61
2022/07/01 01:45:20;;;;;;;9.38;6.35;;;19.90;99.90;20.00;100108.00;;;;4896218;28;112821;-60
2022/07/01 01:47:46;;;;;;;9.75;6.18;;;19.80;99.90;20.00;100101.00;;;;4895851;28;109990;-60
2022/07/01 01:50:14;;;;;;;6.53;4.72;;;19.80;99.90;20.00;100107.00;;;;4897406;28;106424;-60
2022/07/01 01:52:42;;;;;;;9.68;6.40;;;19.80;99.90;19.90;100109.00;;;;4897249;28;103924;-60
2022/07/01 01:55:09;;;;;;;11.50;6.03;;;19.80;99.90;19.90;100097.00;;;;4897613;28;87735;-60
2022/07/01 01:57:35;;;;;;;5.82;5.07;;;19.70;99.90;19.90;100098.00;;;;4897781;28;88079;-60
2022/07/01 02:00:01;;;;;;;7.38;5.72;;;19.70;99.90;19.90;100096.00;;;;4897270;28;88983;-61
2022/07/01 02:02:27;;;;;;;8.73;6.00;;;19.70;99.90;19.90;100098.00;;;;4895871;28;117259;-60
2022/07/01 02:04:53;;;;;;;9.43;6.05;;;19.70;99.90;19.80;100099.00;;;;4897502;28;99934;-61
2022/07/01 02:07:19;;;;;;;8.15;6.28;;;19.70;99.90;19.80;100101.00;;;;4896410;28;93832;-60
2022/07/01 02:09:44;;;;;;;8.55;6.90;;;19.70;99.90;19.80;100087.00;;;;4897408;28;87525;-61
2022/07/01 02:12:10;;;;;;;10.70;6.30;;;19.70;99.90;19.80;100103.00;;;;4896117;28;116772;-60
2022/07/01 02:14:36;;;;;;;7.90;6.32;;;19.60;99.90;19.80;100104.00;;;;4896441;28;107019;-60
2022/07/01 02:17:03;;;;;;;5.47;4.78;;;19.60;99.90;19.80;100100.00;;;;4896568;28;110371;-62
2022/07/01 02:19:28;;;;;;;6.93;5.68;;;19.60;99.90;19.70;100097.00;;;;4896661;28;92703;-60
2022/07/01 02:21:54;;;;;;;7.55;5.70;;;19.60;99.90;19.70;100110.00;;;;4895636;28;117076;-61
2022/07/01 02:24:19;;;;;;;6.53;5.43;;;19.60;99.90;19.70;100100.00;;;;4896484;28;116501;-60
2022/07/01 02:26:45;;;;;;;8.40;6.03;;;19.60;99.90;19.70;100113.00;;;;4895253;28;111220;-60
2022/07/01 02:29:11;;;;;;;8.23;6.07;;;19.60;99.90;19.70;100110.00;;;;4896851;28;108159;-61
2022/07/01 02:31:38;;;;;;;8.50;6.38;;;19.60;99.90;19.70;100106.00;;;;4896180;28;88169;-61
2022/07/01 02:34:03;;;;;;;7.50;6.50;;;19.60;99.90;19.70;100108.00;;;;4896976;28;88335;-58
2022/07/01 02:36:29;;;;;;;12.80;7.25;;;19.50;99.90;19.70;100111.00;;;;4896128;28;95336;-60
2022/07/01 02:38:54;;;;;;;10.35;7.55;;;19.80;99.90;19.70;100104.00;;;;4877595;28;109017;-61
2022/07/01 02:41:21;;;;;;;11.48;7.80;;;19.50;99.90;19.70;100106.00;;;;4895277;28;116303;-60
2022/07/01 02:43:52;;;;;;;7.85;6.00;;;19.50;99.90;19.70;100109.00;;;;4895159;28;116836;-60
2022/07/01 02:46:18;;;;;;;11.70;7.85;;;19.50;99.90;19.60;100115.00;;;;4896714;28;111242;-61
2022/07/01 02:48:44;;;;;;;7.38;6.20;;;19.50;99.90;19.60;100116.00;;;;4896892;28;88621;-61
2022/07/01 02:51:09;;;;;;;8.77;7.40;;;19.50;99.90;19.60;100118.00;;;;4895934;28;110624;-61
2022/07/01 02:53:35;;;;;;;8.13;7.18;;;19.50;99.90;19.60;100122.00;;;;4896656;28;118880;-61
2022/07/01 02:56:01;;;;;;;8.65;6.65;;;19.50;99.90;19.60;100124.00;;;;4897412;28;88070;-60
2022/07/01 02:58:26;;;;;;;10.68;7.38;;;19.50;99.90;19.60;100126.00;;;;4898006;28;109107;-61
2022/07/01 03:00:53;;;;;;;11.07;7.05;;;19.50;99.90;19.60;100133.00;;;;4899302;28;115538;-61
2022/07/01 03:03:20;;;;;;;7.70;6.18;;;19.40;99.90;19.60;100143.00;;;;4900623;28;89011;-60
2022/07/01 03:05:47;;;;;;;10.02;7.00;;;19.40;99.90;19.60;100141.00;;;;4901827;28;87069;-60
2022/07/01 03:08:12;;;;;;;7.15;4.97;;;19.40;99.90;19.50;100137.00;;;;4900206;28;87694;-60
2022/07/01 03:10:38;;;;;;;15.63;7.85;;;19.40;99.90;19.50;100146.00;;;;4898356;28;117450;-60
2022/07/01 03:13:04;;;;;;;8.75;6.65;;;19.40;99.90;19.50;100147.00;;;;4899895;28;88536;-60
2022/07/01 03:15:29;;;;;;;13.05;6.95;;;19.40;99.90;19.50;100145.00;;;;4900030;28;97158;-60
2022/07/01 03:17:55;;;;;;;8.02;6.65;;;19.30;99.90;19.50;100147.00;;;;4898638;28;108706;-60
2022/07/01 03:20:21;;;;;;;8.27;6.82;;;19.40;99.90;19.50;100146.00;;;;4898372;28;118859;-60
2022/07/01 03:22:47;;;;;;;8.35;6.03;;;19.30;99.90;19.50;100145.00;;;;4898815;28;88663;-59
2022/07/01 03:25:13;;;;;;;9.25;6.97;;;19.30;99.90;19.40;100153.00;;;;4900564;28;87525;-60
2022/07/01 03:27:44;;;;;;;8.05;6.40;;;19.30;99.90;19.40;100152.00;;;;4901626;28;87752;-60
2022/07/01 03:30:17;;;;;;;12.05;6.68;;;19.30;99.90;19.40;100154.00;;;;4883272;28;88202;-60
2022/07/01 03:32:43;;;;;;;10.93;6.38;;;19.30;99.90;19.50;100156.00;;;;4909919;28;88018;-60
2022/07/01 03:37:56;;;;;;;11.02;7.65;;;19.30;99.90;19.50;100155.00;;;;4899682;28;88807;-60
2022/07/01 03:40:21;;;;;;;9.13;7.22;;;19.30;99.90;19.50;100149.00;;;;4899952;28;90449;-60
2022/07/01 03:42:47;;;;;;;10.05;6.78;;;19.30;99.90;19.50;100144.00;;;;4898805;28;111009;-60
2022/07/01 03:45:12;;;;;;;9.45;7.88;;;19.40;99.90;19.50;100144.00;;;;4900904;28;89065;-60
2022/07/01 03:47:45;;;;;;;8.75;7.72;;;19.40;99.90;19.50;100145.00;;;;4900137;28;107363;-60
2022/07/01 03:50:10;;;;;;;7.00;5.65;;;19.40;99.90;19.60;100147.00;;;;4883142;28;102038;-60
2022/07/01 03:52:36;;;;;;;11.25;7.55;;;19.40;99.90;19.60;100145.00;;;;4900035;28;117596;-61
2022/07/01 03:55:02;;;;;;;11.65;7.55;;;19.50;99.90;19.70;100151.00;;;;4899935;28;108662;-60
2022/07/01 03:57:27;;;;;;;12.95;6.78;;;19.50;99.90;19.70;100150.00;;;;4900424;28;95750;-61
2022/07/01 03:59:53;;;;;;;11.95;6.63;;;19.60;99.90;19.80;100153.00;;;;4900837;28;116784;-60
2022/07/01 04:02:19;;;;;;;14.57;6.97;;;19.60;99.90;19.90;100150.00;;;;4899606;28;88681;-61
2022/07/01 04:04:44;;;;;;;11.05;6.90;;;19.70;99.90;19.90;100148.00;;;;4900460;28;110538;-61
2022/07/01 04:07:11;;;;;;;13.05;7.07;;;19.70;99.90;20.00;100147.00;;;;4882624;28;107478;-61
2022/07/01 04:09:37;;;;;;;10.55;7.80;;;19.80;99.90;20.10;100147.00;;;;4901545;28;88860;-61
2022/07/01 04:12:03;;;;;;;9.60;7.60;;;19.80;99.90;20.20;100148.00;;;;4898748;28;88870;-60
2022/07/01 04:14:30;;;;;;;9.95;8.00;;;19.90;99.90;20.30;100145.00;;;;4880678;28;87802;-61
2022/07/01 04:16:55;;;;;;;8.20;7.38;;;20.10;99.90;20.40;100147.00;;;;4898585;28;108849;-61
2022/07/01 04:19:21;;;;;;;8.48;7.00;;;20.20;99.90;20.60;100136.00;;;;4881067;28;87332;-61
2022/07/01 04:24:37;;;;;;;15.32;8.02;;;20.50;99.90;21.00;100136.00;;;;4898390;28;87892;-61
2022/07/01 04:27:06;;;;;;;11.50;7.40;;;20.70;99.90;21.10;100147.00;;;;4897699;28;108092;-61
2022/07/01 04:29:32;;;;;;;12.30;7.38;;;20.90;99.90;21.30;100142.00;;;;4896907;28;118983;-61
2022/07/01 04:31:59;;;;;;;11.02;7.28;;;21.00;99.90;21.50;100160.00;;;;4897240;28;116489;-61
2022/07/01 04:34:25;;;;;;;9.20;6.45;;;21.20;99.90;21.70;100164.00;;;;4897386;28;87725;-61
2022/07/01 04:36:51;;;;;;;7.57;5.97;;;21.40;99.90;21.80;100156.00;;;;4898422;28;87822;-60
2022/07/01 04:39:17;;;;;;;8.93;6.40;;;21.50;99.90;22.00;100159.00;;;;4897417;28;88320;-60
2022/07/01 04:42:01;;;;;;;7.32;5.25;;;21.70;99.90;22.20;100165.00;;;;4896124;28;113659;-60
2022/07/01 04:44:35;;;;;;;8.77;5.72;;;22.10;99.90;22.30;100161.00;;;;4895377;28;87214;-60
2022/07/01 04:47:16;;;;;;;8.77;6.50;;;22.00;99.90;22.50;100175.00;;;;4894942;28;87769;-61
2022/07/01 04:49:42;;;;;;;8.95;5.60;;;22.20;99.90;22.60;100167.00;;;;4893856;28;117362;-60
2022/07/01 04:52:08;;;;;;;8.63;5.97;;;22.30;99.90;22.80;100177.00;;;;4894376;28;88812;-61
2022/07/01 04:54:35;;;;;;;6.65;5.80;;;22.50;99.90;22.90;100172.00;;;;4895089;28;87914;-61
2022/07/01 04:57:01;;;;;;;7.80;5.43;;;22.60;99.90;23.00;100184.00;;;;4894371;28;88152;-61
2022/07/01 04:59:27;;;;;;;6.93;5.38;;;22.70;99.90;23.20;100180.00;;;;4893515;28;117976;-60
2022/07/01 05:01:55;;;;;;;8.07;4.82;;;22.90;99.90;23.30;100184.00;;;;4875336;28;88774;-61
2022/07/01 05:04:21;;;;;;;8.63;6.03;;;23.00;99.90;23.40;100191.00;;;;4894354;28;88910;-60
2022/07/01 05:06:47;;;;;;;6.60;5.25;;;23.10;99.90;23.50;100193.00;;;;4894641;28;87697;-61
2022/07/01 05:09:13;;;;;;;4.82;4.22;;;23.20;99.90;23.60;100189.00;;;;4893133;28;117093;-60
2022/07/01 05:11:39;;;;;;;9.95;5.60;;;23.30;99.90;23.70;100187.00;;;;4893993;28;116455;-60
2022/07/01 05:14:06;;;;;;;5.95;4.35;;;23.40;99.90;23.80;100194.00;;;;4896396;28;103260;-61
2022/07/01 05:16:32;;;;;;;5.40;4.68;;;23.50;99.90;23.90;100188.00;;;;4897349;28;88805;-61
2022/07/01 05:21:58;;;;;;;6.38;4.53;;;23.80;99.90;24.20;100193.00;;;;4894728;28;87856;-62
2022/07/01 05:24:30;;;;;;;5.82;5.25;;;23.80;99.90;24.30;100202.00;;;;4898074;28;87689;-62
2022/07/01 05:26:58;;;;;;;5.43;4.00;;;24.00;99.90;24.40;100196.00;;;;4895951;28;87844;-62
2022/07/01 05:29:23;;;;;;;10.65;4.32;;;24.10;99.90;24.50;100208.00;;;;4897767;28;88346;-62
2022/07/01 05:31:49;;;;;;;7.05;4.05;;;24.30;99.90;24.70;100207.00;;;;4897603;28;88024;-61
2022/07/01 05:34:15;;;;;;;4.15;3.85;;;24.30;99.90;24.80;100206.00;;;;4893258;28;87657;-61
2022/07/01 05:36:40;;;;;;;6.45;3.90;;;24.50;99.90;25.00;100210.00;;;;4893752;28;90621;-60
2022/07/01 05:39:06;;;;;;;5.25;3.40;;;24.70;99.90;25.10;100196.00;;;;4893841;28;88182;-61
2022/07/01 05:41:32;;;;;;;4.65;3.72;;;24.80;99.90;25.30;100186.00;;;;4894103;28;88772;-62
2022/07/01 05:43:58;;;;;;;4.35;3.40;;;25.00;99.90;25.40;100198.00;;;;4893611;28;87877;-62
2022/07/01 05:46:24;;;;;;;5.00;3.85;;;25.10;99.90;25.50;100201.00;;;;4893358;28;108101;-62
2022/07/01 05:48:49;;;;;;;4.32;3.30;;;25.20;99.90;25.60;100206.00;;;;4895448;28;89780;-61
2022/07/01 05:51:15;;;;;;;7.00;3.42;;;25.40;99.90;25.70;100209.00;;;;4895531;28;116198;-61
2022/07/01 05:53:43;;;;;;;4.25;3.85;;;25.50;99.90;25.90;100212.00;;;;4896813;28;90658;-61
2022/07/01 05:56:09;;;;;;;5.45;3.28;;;25.60;99.90;26.00;100216.00;;;;4897466;28;87739;-60
2022/07/01 05:58:34;;;;;;;4.07;2.50;;;25.70;99.90;26.00;100217.00;;;;4898212;28;95309;-61
2022/07/01 06:01:00;;;;;;;4.57;3.78;;;25.70;99.90;26.00;100221.00;;;;4900002;28;115904;-62
2022/07/01 06:03:25;;;;;;;5.30;3.72;;;25.80;99.90;26.00;100220.00;;;;4898578;28;105934;-61
2022/07/01 06:05:51;;;;;;;3.85;2.90;;;25.80;99.90;26.10;100217.00;;;;4897289;28;88804;-61
2022/07/01 06:08:17;;;;;;;16.85;3.92;;;25.80;99.90;26.20;100222.00;;;;4896221;28;103034;-61
2022/07/01 06:10:42;;;;;;;4.53;2.63;;;25.90;99.90;26.30;100230.00;;;;4897402;28;88237;-61
2022/07/01 06:13:08;;;;;;;4.95;2.13;;;26.00;99.90;26.40;100229.00;;;;4896287;28;111531;-61
2022/07/01 06:15:34;;;;;;;5.97;3.10;;;26.10;99.90;26.50;100240.00;;;;4900381;28;87863;-61
2022/07/01 06:18:00;;;;;;;4.60;3.95;;;26.20;99.90;26.50;100235.00;;;;4897252;28;116387;-62
2022/07/01 06:20:26;;;;;;;4.13;3.20;;;26.20;99.90;26.50;100241.00;;;;4898150;28;119754;-62
2022/07/01 06:22:52;;;;;;;3.88;3.20;;;26.30;99.90;26.60;100220.00;;;;4897735;28;86991;-61
2022/07/01 06:25:18;;;;;;;4.85;2.97;;;26.30;99.90;26.60;100233.00;;;;4896077;28;107695;-61
2022/07/01 06:27:45;;;;;;;3.53;2.95;;;26.40;99.90;26.70;100232.00;;;;4896944;28;89001;-62
2022/07/01 06:30:11;;;;;;;5.72;3.67;;;26.40;99.90;26.70;100236.00;;;;4896672;28;88635;-61
2022/07/01 06:32:38;;;;;;;7.40;3.67;;;26.50;99.90;26.70;100245.00;;;;4895124;28;98198;-61
2022/07/01 06:35:04;;;;;;;6.65;3.83;;;26.40;99.90;26.60;100239.00;;;;4896663;28;88057;-62
2022/07/01 06:37:35;;;;;;;5.05;3.50;;;26.40;99.80;26.60;100241.00;;;;4896098;28;88785;-62
2022/07/01 06:40:03;;;;;;;4.55;3.60;;;26.40;99.80;26.60;100238.00;;;;4898466;28;88597;-62
2022/07/01 06:42:29;;;;;;;8.00;2.92;;;26.40;99.90;26.60;100241.00;;;;4897585;28;87746;-61
2022/07/01 06:44:55;;;;;;;5.53;4.30;;;26.40;99.90;26.60;100239.00;;;;4895288;28;103950;-62
2022/07/01 06:47:20;;;;;;;8.32;3.53;;;26.40;99.90;26.60;100239.00;;;;4895133;28;116269;-61
2022/07/01 06:49:46;;;;;;;10.77;4.63;;;26.40;99.90;26.70;100240.00;;;;4896335;28;87646;-61
2022/07/01 06:52:12;;;;;;;5.22;3.53;;;26.50;99.90;26.80;100246.00;;;;4896635;28;87912;-61
2022/07/01 06:54:38;;;;;;;6.47;3.70;;;26.50;99.70;26.80;100234.00;;;;4876677;28;109530;-61
2022/07/01 06:57:04;;;;;;;6.40;4.03;;;26.60;99.60;26.80;100243.00;;;;4895366;28;118165;-62
2022/07/01 06:59:31;;;;;;;6.88;5.03;;;26.60;99.60;26.90;100242.00;;;;4896259;28;87847;-62
2022/07/01 07:01:56;;;;;;;13.13;3.95;;;26.60;99.40;26.90;100246.00;;;;4896044;28;87713;-61
2022/07/01 07:04:22;;;;;;;5.20;4.50;;;26.60;99.30;27.00;100237.00;;;;4896829;28;87636;-61
2022/07/01 07:06:48;;;;;;;9.40;4.10;;;26.70;99.60;27.10;100243.00;;;;4895321;28;116362;-62
2022/07/01 07:09:13;;;;;;;5.25;4.28;;;26.70;99.50;27.10;100245.00;;;;4895606;28;117018;-61
2022/07/01 07:11:39;;;;;;;5.78;4.60;;;26.80;99.50;27.20;100246.00;;;;4896070;28;110257;-62
2022/07/01 07:14:05;;;;;;;10.30;3.72;;;26.90;99.10;27.10;100241.00;;;;4894439;28;107680;-62
2022/07/01 07:16:30;;;;;;;6.00;4.47;;;26.90;98.70;27.10;100247.00;;;;4896896;28;88075;-61
2022/07/01 07:18:56;;;;;;;6.10;4.38;;;26.90;98.80;27.10;100245.00;;;;4894148;28;118006;-62
2022/07/01 07:21:22;;;;;;;5.97;4.57;;;26.90;98.90;27.20;100246.00;;;;4896110;28;87882;-61
2022/07/01 07:23:48;;;;;;;5.93;4.78;;;26.90;98.80;27.30;100244.00;;;;4894940;28;98898;-62
2022/07/01 07:26:13;;;;;;;6.55;4.55;;;27.00;98.60;27.40;100254.00;;;;4896010;28;87549;-61
2022/07/01 07:28:39;;;;;;;6.40;4.90;;;27.00;98.90;27.50;100250.00;;;;4895194;28;117848;-61
2022/07/01 07:31:05;;;;;;;6.82;4.57;;;27.20;98.50;27.60;100244.00;;;;4895760;28;87757;-61
2022/07/01 07:33:31;;;;;;;6.93;4.57;;;27.30;98.10;27.60;100247.00;;;;4895193;28;108926;-61
2022/07/01 07:35:56;;;;;;;7.07;5.72;;;27.30;97.80;27.60;100260.00;;;;4896770;28;87293;-61
2022/07/01 07:38:22;;;;;;;6.20;4.80;;;27.40;97.70;27.60;100265.00;;;;4877380;28;87897;-62
2022/07/01 07:40:48;;;;;;;6.50;4.85;;;27.40;97.80;27.60;100280.00;;;;4896449;28;87800;-62
2022/07/01 07:43:14;;;;;;;8.35;4.82;;;27.30;97.60;27.40;100281.00;;;;4894463;28;93787;-61
2022/07/01 07:45:39;;;;;;;7.55;5.75;;;27.20;97.60;27.30;100281.00;;;;4897951;28;117739;-61
2022/07/01 07:48:06;;;;;;;5.43;4.90;;;27.20;97.80;27.20;100295.00;;;;4898305;28;116095;-61
2022/07/01 07:50:32;;;;;;;9.48;5.28;;;27.00;98.00;27.10;100300.00;;;;4881031;28;87886;-61
2022/07/01 07:52:58;;;;;;;8.77;5.05;;;26.90;98.30;27.00;100298.00;;;;4897528;28;87688;-61
2022/07/01 07:55:24;;;;;;;6.00;5.15;;;26.80;98.60;26.90;100298.00;;;;4898895;28;87785;-61
2022/07/01 07:57:50;;;;;;;7.28;4.97;;;26.70;98.50;26.90;100299.00;;;;4896319;28;88660;-61
2022/07/01 08:00:16;;;;;;;6.85;5.60;;;26.70;98.70;26.80;100294.00;;;;4898413;28;87021;-61
2022/07/01 08:02:43;;;;;;;8.50;4.07;;;26.50;98.50;26.70;100310.00;;;;4898599;28;95457;-60
2022/07/01 08:05:10;;;;;;;4.78;4.18;;;26.40;98.20;26.60;100307.00;;;;4898313;28;88549;-60
2022/07/01 08:07:40;;;;;;;4.40;3.97;;;26.30;98.10;26.50;100315.00;;;;4898072;28;89008;-60
2022/07/01 08:10:09;;;;;;;3.47;3.17;;;26.20;97.90;26.40;100332.00;;;;4898651;28;87887;-61
2022/07/01 08:12:35;;;;;;;3.72;3.13;;;26.10;97.60;26.20;100321.00;;;;4897094;28;99637;-61
2022/07/01 08:15:02;;;;;;;8.05;3.65;;;26.00;97.70;26.10;100321.00;;;;4897574;28;90736;-59
2022/07/01 08:17:34;;;;;;;3.90;3.50;;;25.90;97.80;26.20;100315.00;;;;4898272;28;87846;-59
2022/07/01 08:20:00;;;;;;;5.20;3.63;;;25.90;98.10;26.20;100318.00;;;;4897586;28;91745;-61
2022/07/01 08:22:26;;;;;;;4.35;2.60;;;25.90;98.20;26.30;100320.00;;;;4897714;28;87581;-61
2022/07/01 08:24:51;;;;;;;4.38;3.35;;;26.00;98.50;26.30;100317.00;;;;4898476;28;88825;-61
2022/07/01 08:27:17;;;;;;;4.07;3.00;;;26.00;98.40;26.30;100322.00;;;;4897646;28;115567;-60
2022/07/01 08:29:43;;;;;;;3.88;3.08;;;26.00;98.50;26.30;100334.00;;;;4897447;28;110363;-60
2022/07/01 08:32:09;;;;;;;2.53;2.17;;;26.00;98.40;26.30;100343.00;;;;4897045;28;107350;-60
2022/07/01 08:34:44;;;;;;;3.22;2.55;;;26.00;97.90;26.20;100358.00;;;;4897061;28;96689;-60
2022/07/01 08:37:09;;;;;;;3.28;2.53;;;26.00;97.40;26.10;100338.00;;;;4897368;28;115163;-61
2022/07/01 08:39:35;;;;;;;1.95;1.77;;;25.90;97.20;26.00;100350.00;;;;4897962;28;87802;-61
2022/07/01 08:42:01;;;;;;;7.43;2.28;;;25.80;97.40;26.00;100355.00;;;;4896222;28;107949;-61
2022/07/01 08:44:46;;;;;;;3.30;1.77;;;25.70;97.60;25.90;100361.00;;;;4896047;28;88558;-61
2022/07/01 08:47:13;;;;;;;2.38;1.63;;;25.70;97.80;25.80;100355.00;;;;4879533;28;117068;-61
2022/07/01 08:49:39;;;;;;;2.20;1.75;;;25.60;97.80;25.70;100356.00;;;;4898052;28;87108;-60
2022/07/01 08:52:05;;;;;;;2.08;1.63;;;25.50;98.00;25.70;100364.00;;;;4897775;28;105954;-61
2022/07/01 08:54:31;;;;;;;2.20;1.83;;;25.50;98.20;25.60;100379.00;;;;4896596;28;117838;-60
2022/07/01 08:56:56;;;;;;;2.08;1.88;;;25.40;98.50;25.60;100387.00;;;;4897170;28;88852;-60
2022/07/01 08:59:32;;;;;;;2.78;2.25;;;25.40;98.60;25.50;100387.00;;;;4897117;28;110819;-58
2022/07/01 09:02:04;;;;;;;2.17;1.95;;;25.30;98.60;25.40;100392.00;;;;4898309;28;87679;-60
2022/07/01 09:04:30;;;;;;;2.33;2.05;;;25.20;98.60;25.20;100390.00;;;;4897088;28;88771;-60
2022/07/01 09:07:09;;;;;;;4.47;2.10;;;25.00;98.90;25.00;100407.00;;;;4897407;28;88698;-59
2022/07/01 09:09:39;;;;;;;5.07;2.55;;;25.00;99.20;24.80;100411.00;;;;4898117;28;87985;-60
2022/07/01 09:12:05;;;;;;;1.63;1.52;;;24.70;99.50;24.60;100407.00;;;;4898589;28;88062;-60
2022/07/01 09:14:34;;;;;;;2.22;1.70;;;24.40;99.70;24.50;100416.00;;;;4897040;28;104844;-60
2022/07/01 09:17:04;;;;;;;2.33;2.13;;;24.30;99.90;24.50;100416.00;;;;4898028;28;87887;-61
2022/07/01 09:19:36;;;;;;;2.33;1.95;;;24.30;99.90;24.50;100424.00;;;;4898427;28;88062;-60
2022/07/01 09:22:04;;;;;;;1.80;1.70;;;24.30;99.90;24.60;100426.00;;;;4896981;28;88363;-60
2022/07/01 09:24:40;;;;;;;1.83;1.73;;;24.30;99.90;24.60;100421.00;;;;4878600;28;90432;-60
2022/07/01 09:27:30;;;;;;;1.83;1.42;;;24.30;99.90;24.30;100425.00;;;;4898183;28;87634;-61
2022/07/01 09:29:55;;;;;;;5.05;2.22;;;24.20;99.80;24.20;100438.00;;;;4893720;28;110463;-60
2022/07/01 09:32:24;;;;;;;3.78;2.45;;;24.00;99.90;24.10;100436.00;;;;4897460;28;109095;-60
2022/07/01 09:34:52;;;;;;;2.38;1.95;;;23.90;99.90;24.00;100444.00;;;;4895910;28;117978;-60
2022/07/01 09:37:21;;;;;;;2.60;1.98;;;23.80;99.90;23.90;100449.00;;;;4895389;28;92758;-60
2022/07/01 09:39:53;;;;;;;2.03;1.83;;;23.70;99.90;23.70;100450.00;;;;4894523;28;95895;-60
2022/07/01 09:42:21;;;;;;;2.10;1.70;;;23.60;99.90;23.70;100449.00;;;;4895554;28;92511;-60
2022/07/01 09:45:11;;;;;;;2.38;1.75;;;23.50;99.90;23.70;100459.00;;;;4905216;28;114842;-60
2022/07/01 09:47:41;;;;;;;1.23;1.13;;;23.50;99.90;23.60;100468.00;;;;4894016;28;93972;-61
2022/07/01 09:50:09;;;;;;;2.10;1.83;;;23.40;99.90;23.50;100462.00;;;;4896351;28;93264;-60
2022/07/01 09:52:36;;;;;;;2.55;1.92;;;23.30;99.90;23.40;100466.00;;;;4894552;28;93004;-60
2022/07/01 09:55:02;;;;;;;1.75;1.60;;;23.20;99.90;23.30;100490.00;;;;4894081;28;93216;-59
2022/07/01 09:57:28;;;;;;;3.47;2.28;;;23.10;99.90;23.10;100476.00;;;;4894533;28;93600;-60
2022/07/01 09:59:54;;;;;;;2.90;1.50;;;23.00;99.90;23.00;100485.00;;;;4894176;28;92888;-60
2022/07/01 10:02:21;;;;;;;1.55;1.45;;;22.80;99.90;23.00;100476.00;;;;4894747;28;92745;-60
2022/07/01 10:05:02;;;;;;;3.53;2.75;;;22.80;99.90;23.00;100490.00;;;;4893349;28;92934;-60
2022/07/01 10:08:20;;;;;;;1.63;1.35;;;22.70;99.90;22.90;100494.00;;;;4876022;28;92926;-60
2022/07/01 10:11:20;;;;;;;1.88;1.70;;;22.70;99.90;22.80;100505.00;;;;4893559;28;92625;-60
2022/07/01 10:13:46;;;;;;;2.72;1.95;;;22.60;99.90;22.70;100519.00;;;;4893238;28;94133;-59
2022/07/01 10:16:14;;;;;;;1.25;1.15;;;22.50;99.90;22.60;100517.00;;;;4891320;28;121850;-60
2022/07/01 10:18:40;;;;;;;3.53;1.88;;;22.40;99.90;22.50;100524.00;;;;4892348;28;92913;-59
2022/07/01 10:21:06;;;;;;;2.10;1.33;;;22.40;99.90;22.50;100521.00;;;;4893412;28;105541;-60
2022/07/01 10:23:42;;;;;;;2.35;1.40;;;22.30;99.90;22.50;100520.00;;;;4893810;28;92885;-60
2022/07/01 10:26:13;;;;;;;2.25;1.42;;;22.30;99.90;22.50;100509.00;;;;4893631;28;94036;-60
2022/07/01 10:28:41;;;;;;;1.70;1.50;;;22.30;99.90;22.50;100519.00;;;;4893921;28;93715;-60
2022/07/01 10:31:16;;;;;;;2.78;1.55;;;22.20;99.90;22.60;100516.00;;;;4894749;28;91965;-60
2022/07/01 10:33:57;;;;;;;1.15;1.15;;;22.30;99.90;22.70;100523.00;;;;4893503;28;93080;-59
2022/07/01 10:36:25;;;;;;;1.48;1.30;;;22.40;99.90;22.70;100522.00;;;;4892155;28;97320;-60
2022/07/01 10:39:06;;;;;;;1.20;1.10;;;22.40;99.90;22.80;100523.00;;;;4892116;28;94142;-60
2022/07/01 10:41:45;;;;;;;1.50;1.00;;;22.50;99.90;22.80;100525.00;;;;4893418;28;92906;-60
2022/07/01 10:44:15;;;;;;;1.52;0.90;;;22.60;99.90;22.80;100520.00;;;;4893131;28;92847;-58
2022/07/01 10:46:56;;;;;;;1.13;1.00;;;22.50;99.90;22.80;100529.00;;;;4892721;28;93318;-59
2022/07/01 10:49:37;;;;;;;1.05;0.95;;;22.50;99.90;22.70;100518.00;;;;4893911;28;92744;-57
2022/07/01 10:52:14;;;;;;;0.65;0.52;;;22.50;99.80;22.70;100535.00;;;;4893435;28;92753;-60